sensor_id;sensor_type;location;lat;lon;timestamp;P1;durP1;ratioP1;P2;durP2;ratioP2
54145;SDS011;65909;49.422;7.738;2023-03-03T00:00:11;15.70;;;8.50;;
54145;SDS011;65909;49.422;7.738;2023-03-03T00:02:36;18.50;;;9.65;;
54145;SDS011;65909;49.422;7.738;2023-03-03T00:05:02;19.60;;;9.48;;
54145;SDS011;65909;49.422;7.738;2023-03-03T00:07:27;18.05;;;9.30;;
54145;SDS011;65909;49.422;7.738;2023-03-03T00:09:53;18.60;;;9.63;;
54145;SDS011;65909;49.422;7.738;2023-03-03T00:14:51;16.83;;;9.60;;
54145;SDS011;65909;49.422;7.738;2023-03-03T00:17:21;22.35;;;10.82;;
54145;SDS011;65909;49.422;7.738;2023-03-03T00:19:47;15.55;;;9.20;;
54145;SDS011;65909;49.422;7.738;2023-03-03T00:22:15;18.52;;;9.60;;
54145;SDS011;65909;49.422;7.738;2023-03-03T00:24:55;19.23;;;10.32;;
54145;SDS011;65909;49.422;7.738;2023-03-03T00:29:55;19.27;;;10.30;;
54145;SDS011;65909;49.422;7.738;2023-03-03T00:35:18;21.48;;;11.35;;
54145;SDS011;65909;49.422;7.738;2023-03-03T00:37:58;23.38;;;10.98;;
54145;SDS011;65909;49.422;7.738;2023-03-03T00:40:38;20.40;;;11.18;;
54145;SDS011;65909;49.422;7.738;2023-03-03T00:43:17;19.50;;;11.50;;
54145;SDS011;65909;49.422;7.738;2023-03-03T00:45:48;25.95;;;12.93;;
54145;SDS011;65909;49.422;7.738;2023-03-03T00:50:51;27.48;;;11.43;;
54145;SDS011;65909;49.422;7.738;2023-03-03T00:53:18;23.40;;;11.77;;
54145;SDS011;65909;49.422;7.738;2023-03-03T00:55:46;23.83;;;12.70;;
54145;SDS011;65909;49.422;7.738;2023-03-03T00:58:13;27.00;;;13.57;;
54145;SDS011;65909;49.422;7.738;2023-03-03T01:00:38;25.45;;;13.13;;
54145;SDS011;65909;49.422;7.738;2023-03-03T01:03:06;25.48;;;13.98;;
54145;SDS011;65909;49.422;7.738;2023-03-03T01:05:39;21.52;;;11.95;;
54145;SDS011;65909;49.422;7.738;2023-03-03T01:08:05;26.38;;;13.43;;
54145;SDS011;65909;49.422;7.738;2023-03-03T01:10:31;23.23;;;12.23;;
54145;SDS011;65909;49.422;7.738;2023-03-03T01:12:59;24.10;;;13.02;;
54145;SDS011;65909;49.422;7.738;2023-03-03T01:15:25;26.10;;;13.38;;
54145;SDS011;65909;49.422;7.738;2023-03-03T01:17:50;21.95;;;12.40;;
54145;SDS011;65909;49.422;7.738;2023-03-03T01:20:16;26.88;;;13.68;;
54145;SDS011;65909;49.422;7.738;2023-03-03T01:22:42;23.65;;;13.10;;
54145;SDS011;65909;49.422;7.738;2023-03-03T01:25:08;23.20;;;12.57;;
54145;SDS011;65909;49.422;7.738;2023-03-03T01:27:34;24.50;;;12.68;;
54145;SDS011;65909;49.422;7.738;2023-03-03T01:30:00;28.10;;;12.32;;
54145;SDS011;65909;49.422;7.738;2023-03-03T01:32:26;25.58;;;12.75;;
54145;SDS011;65909;49.422;7.738;2023-03-03T01:34:52;26.30;;;12.82;;
54145;SDS011;65909;49.422;7.738;2023-03-03T01:37:18;23.90;;;13.10;;
54145;SDS011;65909;49.422;7.738;2023-03-03T01:39:51;22.38;;;12.50;;
54145;SDS011;65909;49.422;7.738;2023-03-03T01:42:17;30.58;;;13.20;;
54145;SDS011;65909;49.422;7.738;2023-03-03T01:44:43;26.13;;;13.85;;
54145;SDS011;65909;49.422;7.738;2023-03-03T01:49:51;28.33;;;14.10;;
54145;SDS011;65909;49.422;7.738;2023-03-03T01:52:25;31.55;;;14.38;;
54145;SDS011;65909;49.422;7.738;2023-03-03T01:54:59;31.05;;;14.50;;
54145;SDS011;65909;49.422;7.738;2023-03-03T01:57:32;29.80;;;13.68;;
54145;SDS011;65909;49.422;7.738;2023-03-03T02:00:01;27.77;;;13.95;;
54145;SDS011;65909;49.422;7.738;2023-03-03T02:02:29;31.52;;;15.25;;
54145;SDS011;65909;49.422;7.738;2023-03-03T02:04:56;30.67;;;16.45;;
54145;SDS011;65909;49.422;7.738;2023-03-03T02:07:21;30.27;;;13.73;;
54145;SDS011;65909;49.422;7.738;2023-03-03T02:10:05;32.47;;;14.35;;
54145;SDS011;65909;49.422;7.738;2023-03-03T02:12:37;34.00;;;15.50;;
54145;SDS011;65909;49.422;7.738;2023-03-03T02:15:14;28.13;;;15.02;;
54145;SDS011;65909;49.422;7.738;2023-03-03T02:17:45;30.35;;;13.77;;
54145;SDS011;65909;49.422;7.738;2023-03-03T02:20:26;28.98;;;14.80;;
54145;SDS011;65909;49.422;7.738;2023-03-03T02:23:04;28.27;;;13.93;;
54145;SDS011;65909;49.422;7.738;2023-03-03T02:25:47;24.67;;;14.43;;
54145;SDS011;65909;49.422;7.738;2023-03-03T02:28:35;26.38;;;14.25;;
54145;SDS011;65909;49.422;7.738;2023-03-03T02:31:02;29.45;;;15.20;;
54145;SDS011;65909;49.422;7.738;2023-03-03T02:33:30;26.92;;;14.38;;
54145;SDS011;65909;49.422;7.738;2023-03-03T02:35:56;33.60;;;13.90;;
54145;SDS011;65909;49.422;7.738;2023-03-03T02:38:26;24.88;;;13.52;;
54145;SDS011;65909;49.422;7.738;2023-03-03T02:43:25;31.83;;;14.30;;
54145;SDS011;65909;49.422;7.738;2023-03-03T02:45:56;35.90;;;15.65;;
54145;SDS011;65909;49.422;7.738;2023-03-03T02:48:22;34.13;;;14.95;;
54145;SDS011;65909;49.422;7.738;2023-03-03T02:50:47;30.70;;;14.43;;
54145;SDS011;65909;49.422;7.738;2023-03-03T02:53:13;32.80;;;15.35;;
54145;SDS011;65909;49.422;7.738;2023-03-03T02:55:38;27.00;;;14.68;;
54145;SDS011;65909;49.422;7.738;2023-03-03T02:58:03;33.17;;;15.02;;
54145;SDS011;65909;49.422;7.738;2023-03-03T03:00:29;28.38;;;14.45;;
54145;SDS011;65909;49.422;7.738;2023-03-03T03:02:54;31.02;;;15.18;;
54145;SDS011;65909;49.422;7.738;2023-03-03T03:05:20;36.40;;;14.45;;
54145;SDS011;65909;49.422;7.738;2023-03-03T03:07:45;35.28;;;14.98;;
54145;SDS011;65909;49.422;7.738;2023-03-03T03:10:10;35.92;;;17.00;;
54145;SDS011;65909;49.422;7.738;2023-03-03T03:12:36;36.08;;;16.42;;
54145;SDS011;65909;49.422;7.738;2023-03-03T03:15:01;38.22;;;15.68;;
54145;SDS011;65909;49.422;7.738;2023-03-03T03:17:27;37.05;;;16.73;;
54145;SDS011;65909;49.422;7.738;2023-03-03T03:19:52;35.03;;;16.02;;
54145;SDS011;65909;49.422;7.738;2023-03-03T03:22:17;39.58;;;16.55;;
54145;SDS011;65909;49.422;7.738;2023-03-03T03:24:43;36.15;;;17.60;;
54145;SDS011;65909;49.422;7.738;2023-03-03T03:27:08;40.65;;;17.60;;
54145;SDS011;65909;49.422;7.738;2023-03-03T03:29:34;40.65;;;16.98;;
54145;SDS011;65909;49.422;7.738;2023-03-03T03:31:59;40.13;;;18.33;;
54145;SDS011;65909;49.422;7.738;2023-03-03T03:34:24;38.83;;;18.20;;
54145;SDS011;65909;49.422;7.738;2023-03-03T03:36:50;39.65;;;19.05;;
54145;SDS011;65909;49.422;7.738;2023-03-03T03:39:15;38.72;;;17.35;;
54145;SDS011;65909;49.422;7.738;2023-03-03T03:41:40;42.00;;;19.80;;
54145;SDS011;65909;49.422;7.738;2023-03-03T03:44:06;41.50;;;19.55;;
54145;SDS011;65909;49.422;7.738;2023-03-03T03:46:31;40.33;;;18.52;;
54145;SDS011;65909;49.422;7.738;2023-03-03T03:48:56;40.42;;;17.98;;
54145;SDS011;65909;49.422;7.738;2023-03-03T03:51:22;45.25;;;19.85;;
54145;SDS011;65909;49.422;7.738;2023-03-03T03:53:47;46.83;;;19.67;;
54145;SDS011;65909;49.422;7.738;2023-03-03T03:56:12;47.45;;;20.00;;
54145;SDS011;65909;49.422;7.738;2023-03-03T03:58:39;43.13;;;20.67;;
54145;SDS011;65909;49.422;7.738;2023-03-03T04:01:06;45.83;;;21.05;;
54145;SDS011;65909;49.422;7.738;2023-03-03T04:03:32;48.08;;;20.85;;
54145;SDS011;65909;49.422;7.738;2023-03-03T04:05:58;47.00;;;20.83;;
54145;SDS011;65909;49.422;7.738;2023-03-03T04:08:23;41.88;;;19.35;;
54145;SDS011;65909;49.422;7.738;2023-03-03T04:10:48;44.15;;;20.65;;
54145;SDS011;65909;49.422;7.738;2023-03-03T04:13:14;41.08;;;19.40;;
54145;SDS011;65909;49.422;7.738;2023-03-03T04:15:40;51.17;;;23.20;;
54145;SDS011;65909;49.422;7.738;2023-03-03T04:18:06;41.42;;;18.48;;
54145;SDS011;65909;49.422;7.738;2023-03-03T04:20:31;40.17;;;18.00;;
54145;SDS011;65909;49.422;7.738;2023-03-03T04:22:56;46.35;;;19.00;;
54145;SDS011;65909;49.422;7.738;2023-03-03T04:25:22;46.55;;;20.58;;
54145;SDS011;65909;49.422;7.738;2023-03-03T04:27:48;49.20;;;18.58;;
54145;SDS011;65909;49.422;7.738;2023-03-03T04:30:13;43.17;;;17.90;;
54145;SDS011;65909;49.422;7.738;2023-03-03T04:32:40;40.33;;;17.15;;
54145;SDS011;65909;49.422;7.738;2023-03-03T04:35:06;45.75;;;18.48;;
54145;SDS011;65909;49.422;7.738;2023-03-03T04:37:32;47.50;;;20.42;;
54145;SDS011;65909;49.422;7.738;2023-03-03T04:39:57;45.30;;;20.42;;
54145;SDS011;65909;49.422;7.738;2023-03-03T04:42:23;49.15;;;21.00;;
54145;SDS011;65909;49.422;7.738;2023-03-03T04:44:48;47.60;;;20.95;;
54145;SDS011;65909;49.422;7.738;2023-03-03T04:47:13;45.47;;;21.25;;
54145;SDS011;65909;49.422;7.738;2023-03-03T04:49:39;41.25;;;19.13;;
54145;SDS011;65909;49.422;7.738;2023-03-03T04:52:04;56.90;;;24.23;;
54145;SDS011;65909;49.422;7.738;2023-03-03T04:54:30;43.45;;;19.25;;
54145;SDS011;65909;49.422;7.738;2023-03-03T04:56:55;44.00;;;18.67;;
54145;SDS011;65909;49.422;7.738;2023-03-03T04:59:20;44.42;;;19.85;;
54145;SDS011;65909;49.422;7.738;2023-03-03T05:01:46;48.15;;;20.13;;
54145;SDS011;65909;49.422;7.738;2023-03-03T05:04:11;47.95;;;20.80;;
54145;SDS011;65909;49.422;7.738;2023-03-03T05:06:37;47.10;;;20.20;;
54145;SDS011;65909;49.422;7.738;2023-03-03T05:09:02;55.08;;;21.75;;
54145;SDS011;65909;49.422;7.738;2023-03-03T05:11:27;49.10;;;21.30;;
54145;SDS011;65909;49.422;7.738;2023-03-03T05:13:53;46.92;;;21.00;;
54145;SDS011;65909;49.422;7.738;2023-03-03T05:16:18;57.58;;;22.48;;
54145;SDS011;65909;49.422;7.738;2023-03-03T05:18:44;52.05;;;21.23;;
54145;SDS011;65909;49.422;7.738;2023-03-03T05:21:10;49.65;;;20.40;;
54145;SDS011;65909;49.422;7.738;2023-03-03T05:23:35;62.80;;;22.38;;
54145;SDS011;65909;49.422;7.738;2023-03-03T05:26:03;56.58;;;22.30;;
54145;SDS011;65909;49.422;7.738;2023-03-03T05:28:28;53.80;;;23.23;;
54145;SDS011;65909;49.422;7.738;2023-03-03T05:30:54;53.75;;;22.98;;
54145;SDS011;65909;49.422;7.738;2023-03-03T05:33:19;54.38;;;21.27;;
54145;SDS011;65909;49.422;7.738;2023-03-03T05:35:45;55.60;;;22.80;;
54145;SDS011;65909;49.422;7.738;2023-03-03T05:38:10;50.83;;;22.58;;
54145;SDS011;65909;49.422;7.738;2023-03-03T05:40:36;47.85;;;20.85;;
54145;SDS011;65909;49.422;7.738;2023-03-03T05:43:01;48.42;;;20.17;;
54145;SDS011;65909;49.422;7.738;2023-03-03T05:45:27;45.92;;;21.60;;
54145;SDS011;65909;49.422;7.738;2023-03-03T05:47:52;52.80;;;21.02;;
54145;SDS011;65909;49.422;7.738;2023-03-03T05:50:19;44.10;;;19.10;;
54145;SDS011;65909;49.422;7.738;2023-03-03T05:52:51;49.58;;;19.35;;
54145;SDS011;65909;49.422;7.738;2023-03-03T05:55:17;42.78;;;21.27;;
54145;SDS011;65909;49.422;7.738;2023-03-03T05:57:43;59.33;;;24.05;;
54145;SDS011;65909;49.422;7.738;2023-03-03T06:00:09;48.05;;;20.35;;
54145;SDS011;65909;49.422;7.738;2023-03-03T06:02:36;52.55;;;21.25;;
54145;SDS011;65909;49.422;7.738;2023-03-03T06:05:01;56.45;;;21.70;;
54145;SDS011;65909;49.422;7.738;2023-03-03T06:07:27;49.78;;;21.80;;
54145;SDS011;65909;49.422;7.738;2023-03-03T06:09:52;45.63;;;20.13;;
54145;SDS011;65909;49.422;7.738;2023-03-03T06:12:17;44.38;;;20.20;;
54145;SDS011;65909;49.422;7.738;2023-03-03T06:14:43;46.05;;;20.38;;
54145;SDS011;65909;49.422;7.738;2023-03-03T06:17:08;41.55;;;17.52;;
54145;SDS011;65909;49.422;7.738;2023-03-03T06:19:34;50.03;;;20.27;;
54145;SDS011;65909;49.422;7.738;2023-03-03T06:22:00;48.15;;;19.90;;
54145;SDS011;65909;49.422;7.738;2023-03-03T06:24:25;44.22;;;18.95;;
54145;SDS011;65909;49.422;7.738;2023-03-03T06:26:54;50.30;;;21.70;;
54145;SDS011;65909;49.422;7.738;2023-03-03T06:29:20;43.60;;;17.75;;
54145;SDS011;65909;49.422;7.738;2023-03-03T06:31:45;49.17;;;19.88;;
54145;SDS011;65909;49.422;7.738;2023-03-03T06:34:11;42.50;;;18.58;;
54145;SDS011;65909;49.422;7.738;2023-03-03T06:36:36;40.65;;;19.40;;
54145;SDS011;65909;49.422;7.738;2023-03-03T06:39:02;46.83;;;20.33;;
54145;SDS011;65909;49.422;7.738;2023-03-03T06:41:28;48.20;;;20.85;;
54145;SDS011;65909;49.422;7.738;2023-03-03T06:43:53;51.22;;;20.17;;
54145;SDS011;65909;49.422;7.738;2023-03-03T06:46:18;43.10;;;18.52;;
54145;SDS011;65909;49.422;7.738;2023-03-03T06:48:44;48.45;;;18.77;;
54145;SDS011;65909;49.422;7.738;2023-03-03T06:51:21;42.80;;;18.85;;
54145;SDS011;65909;49.422;7.738;2023-03-03T06:54:05;41.72;;;18.73;;
54145;SDS011;65909;49.422;7.738;2023-03-03T06:56:35;44.58;;;19.83;;
54145;SDS011;65909;49.422;7.738;2023-03-03T06:59:01;50.65;;;20.67;;
54145;SDS011;65909;49.422;7.738;2023-03-03T07:01:33;42.30;;;19.08;;
54145;SDS011;65909;49.422;7.738;2023-03-03T07:04:00;52.75;;;20.83;;
54145;SDS011;65909;49.422;7.738;2023-03-03T07:06:28;38.67;;;18.70;;
54145;SDS011;65909;49.422;7.738;2023-03-03T07:08:54;47.95;;;18.98;;
54145;SDS011;65909;49.422;7.738;2023-03-03T07:11:21;43.85;;;20.40;;
54145;SDS011;65909;49.422;7.738;2023-03-03T07:13:51;49.63;;;22.40;;
54145;SDS011;65909;49.422;7.738;2023-03-03T07:16:19;44.55;;;19.00;;
54145;SDS011;65909;49.422;7.738;2023-03-03T07:19:34;47.05;;;19.60;;
54145;SDS011;65909;49.422;7.738;2023-03-03T07:21:48;43.42;;;17.88;;
54145;SDS011;65909;49.422;7.738;2023-03-03T07:24:24;40.80;;;19.33;;
54145;SDS011;65909;49.422;7.738;2023-03-03T07:26:52;47.03;;;19.77;;
54145;SDS011;65909;49.422;7.738;2023-03-03T07:29:24;41.63;;;19.17;;
54145;SDS011;65909;49.422;7.738;2023-03-03T07:31:51;40.75;;;16.48;;
54145;SDS011;65909;49.422;7.738;2023-03-03T07:34:19;38.63;;;16.83;;
54145;SDS011;65909;49.422;7.738;2023-03-03T07:36:53;51.83;;;19.27;;
54145;SDS011;65909;49.422;7.738;2023-03-03T07:39:30;38.40;;;17.48;;
54145;SDS011;65909;49.422;7.738;2023-03-03T07:42:01;36.78;;;17.05;;
54145;SDS011;65909;49.422;7.738;2023-03-03T07:44:39;39.70;;;18.08;;
54145;SDS011;65909;49.422;7.738;2023-03-03T07:47:11;38.78;;;18.27;;
54145;SDS011;65909;49.422;7.738;2023-03-03T07:49:43;44.60;;;20.02;;
54145;SDS011;65909;49.422;7.738;2023-03-03T07:52:17;45.20;;;18.20;;
54145;SDS011;65909;49.422;7.738;2023-03-03T07:54:49;39.20;;;17.65;;
54145;SDS011;65909;49.422;7.738;2023-03-03T07:59:48;45.15;;;19.60;;
54145;SDS011;65909;49.422;7.738;2023-03-03T08:02:32;44.20;;;17.38;;
54145;SDS011;65909;49.422;7.738;2023-03-03T08:05:43;35.00;;;16.55;;
54145;SDS011;65909;49.422;7.738;2023-03-03T08:13:14;34.58;;;16.50;;
54145;SDS011;65909;49.422;7.738;2023-03-03T08:15:51;34.78;;;15.93;;
54145;SDS011;65909;49.422;7.738;2023-03-03T08:18:30;34.13;;;15.90;;
54145;SDS011;65909;49.422;7.738;2023-03-03T08:21:09;35.38;;;18.33;;
54145;SDS011;65909;49.422;7.738;2023-03-03T08:23:37;41.83;;;17.90;;
54145;SDS011;65909;49.422;7.738;2023-03-03T08:26:02;36.63;;;18.58;;
54145;SDS011;65909;49.422;7.738;2023-03-03T08:28:28;35.38;;;17.25;;
54145;SDS011;65909;49.422;7.738;2023-03-03T08:30:53;32.67;;;16.27;;
54145;SDS011;65909;49.422;7.738;2023-03-03T08:33:19;38.05;;;16.00;;
54145;SDS011;65909;49.422;7.738;2023-03-03T08:35:44;34.88;;;15.32;;
54145;SDS011;65909;49.422;7.738;2023-03-03T08:38:10;30.92;;;15.00;;
54145;SDS011;65909;49.422;7.738;2023-03-03T08:40:38;29.77;;;13.13;;
54145;SDS011;65909;49.422;7.738;2023-03-03T08:43:04;31.88;;;13.77;;
54145;SDS011;65909;49.422;7.738;2023-03-03T08:45:29;34.80;;;14.88;;
54145;SDS011;65909;49.422;7.738;2023-03-03T08:47:58;29.83;;;14.30;;
54145;SDS011;65909;49.422;7.738;2023-03-03T08:50:24;33.60;;;15.43;;
54145;SDS011;65909;49.422;7.738;2023-03-03T08:52:50;28.85;;;13.82;;
54145;SDS011;65909;49.422;7.738;2023-03-03T08:55:15;33.03;;;15.02;;
54145;SDS011;65909;49.422;7.738;2023-03-03T08:57:41;27.83;;;12.45;;
54145;SDS011;65909;49.422;7.738;2023-03-03T09:00:08;32.35;;;13.90;;
54145;SDS011;65909;49.422;7.738;2023-03-03T09:02:36;27.00;;;13.02;;
54145;SDS011;65909;49.422;7.738;2023-03-03T09:05:02;29.35;;;13.38;;
54145;SDS011;65909;49.422;7.738;2023-03-03T09:07:28;29.23;;;13.43;;
54145;SDS011;65909;49.422;7.738;2023-03-03T09:09:53;30.13;;;13.48;;
54145;SDS011;65909;49.422;7.738;2023-03-03T09:12:21;30.73;;;12.65;;
54145;SDS011;65909;49.422;7.738;2023-03-03T09:14:52;30.95;;;14.43;;
54145;SDS011;65909;49.422;7.738;2023-03-03T09:17:23;29.33;;;12.95;;
54145;SDS011;65909;49.422;7.738;2023-03-03T09:19:51;26.20;;;13.48;;
54145;SDS011;65909;49.422;7.738;2023-03-03T09:22:21;26.73;;;13.35;;
54145;SDS011;65909;49.422;7.738;2023-03-03T09:24:49;32.72;;;14.55;;
54145;SDS011;65909;49.422;7.738;2023-03-03T09:27:18;26.67;;;12.82;;
54145;SDS011;65909;49.422;7.738;2023-03-03T09:29:51;21.00;;;11.97;;
54145;SDS011;65909;49.422;7.738;2023-03-03T09:34:57;23.40;;;11.38;;
54145;SDS011;65909;49.422;7.738;2023-03-03T09:37:28;21.27;;;11.27;;
54145;SDS011;65909;49.422;7.738;2023-03-03T09:40:00;25.05;;;12.40;;
54145;SDS011;65909;49.422;7.738;2023-03-03T09:43:02;19.13;;;10.93;;
54145;SDS011;65909;49.422;7.738;2023-03-03T09:48:28;40.70;;;19.25;;
54145;SDS011;65909;49.422;7.738;2023-03-03T09:51:35;19.63;;;11.93;;
54145;SDS011;65909;49.422;7.738;2023-03-03T09:57:13;18.70;;;10.73;;
54145;SDS011;65909;49.422;7.738;2023-03-03T10:05:32;19.73;;;11.55;;
54145;SDS011;65909;49.422;7.738;2023-03-03T10:08:20;18.42;;;9.73;;
54145;SDS011;65909;49.422;7.738;2023-03-03T10:11:00;18.45;;;11.40;;
54145;SDS011;65909;49.422;7.738;2023-03-03T10:13:37;16.20;;;10.35;;
54145;SDS011;65909;49.422;7.738;2023-03-03T10:16:30;22.52;;;10.68;;
54145;SDS011;65909;49.422;7.738;2023-03-03T10:21:50;18.50;;;9.52;;
54145;SDS011;65909;49.422;7.738;2023-03-03T10:24:30;18.48;;;10.02;;
54145;SDS011;65909;49.422;7.738;2023-03-03T10:30:10;18.60;;;10.10;;
54145;SDS011;65909;49.422;7.738;2023-03-03T10:35:45;16.23;;;9.98;;
54145;SDS011;65909;49.422;7.738;2023-03-03T10:38:31;21.67;;;9.73;;
54145;SDS011;65909;49.422;7.738;2023-03-03T10:46:34;16.83;;;9.70;;
54145;SDS011;65909;49.422;7.738;2023-03-03T10:54:58;15.05;;;9.00;;
54145;SDS011;65909;49.422;7.738;2023-03-03T11:01:07;18.08;;;9.95;;
54145;SDS011;65909;49.422;7.738;2023-03-03T11:14:32;16.95;;;8.73;;
54145;SDS011;65909;49.422;7.738;2023-03-03T11:30:32;15.80;;;9.57;;
54145;SDS011;65909;49.422;7.738;2023-03-03T11:44:28;16.27;;;10.02;;
54145;SDS011;65909;49.422;7.738;2023-03-03T11:55:01;14.05;;;8.50;;
54145;SDS011;65909;49.422;7.738;2023-03-03T11:57:34;12.95;;;8.32;;
54145;SDS011;65909;49.422;7.738;2023-03-03T12:06:07;14.98;;;9.15;;
54145;SDS011;65909;49.422;7.738;2023-03-03T12:08:55;12.27;;;8.02;;
54145;SDS011;65909;49.422;7.738;2023-03-03T12:14:25;15.45;;;9.23;;
54145;SDS011;65909;49.422;7.738;2023-03-03T12:22:01;14.10;;;8.93;;
54145;SDS011;65909;49.422;7.738;2023-03-03T12:27:22;12.05;;;7.60;;
54145;SDS011;65909;49.422;7.738;2023-03-03T12:30:03;13.13;;;8.02;;
54145;SDS011;65909;49.422;7.738;2023-03-03T12:32:46;14.00;;;8.43;;
54145;SDS011;65909;49.422;7.738;2023-03-03T12:41:02;13.77;;;8.68;;
54145;SDS011;65909;49.422;7.738;2023-03-03T12:43:49;14.13;;;8.27;;
54145;SDS011;65909;49.422;7.738;2023-03-03T12:46:20;13.02;;;7.68;;
54145;SDS011;65909;49.422;7.738;2023-03-03T12:48:46;12.10;;;8.10;;
54145;SDS011;65909;49.422;7.738;2023-03-03T12:51:18;10.65;;;7.13;;
54145;SDS011;65909;49.422;7.738;2023-03-03T12:56:54;11.82;;;7.43;;
54145;SDS011;65909;49.422;7.738;2023-03-03T13:05:09;11.60;;;7.72;;
54145;SDS011;65909;49.422;7.738;2023-03-03T13:10:49;11.73;;;7.45;;
54145;SDS011;65909;49.422;7.738;2023-03-03T13:16:03;11.35;;;7.03;;
54145;SDS011;65909;49.422;7.738;2023-03-03T13:21:08;12.63;;;6.90;;
54145;SDS011;65909;49.422;7.738;2023-03-03T13:23:43;12.57;;;7.35;;
54145;SDS011;65909;49.422;7.738;2023-03-03T13:26:18;12.60;;;6.20;;
54145;SDS011;65909;49.422;7.738;2023-03-03T13:29:04;13.88;;;6.78;;
54145;SDS011;65909;49.422;7.738;2023-03-03T13:31:33;11.77;;;7.18;;
54145;SDS011;65909;49.422;7.738;2023-03-03T13:34:13;14.43;;;6.95;;
54145;SDS011;65909;49.422;7.738;2023-03-03T13:36:57;14.48;;;7.32;;
54145;SDS011;65909;49.422;7.738;2023-03-03T13:39:30;11.15;;;6.53;;
54145;SDS011;65909;49.422;7.738;2023-03-03T13:42:02;12.77;;;6.43;;
54145;SDS011;65909;49.422;7.738;2023-03-03T13:52:28;14.05;;;6.60;;
54145;SDS011;65909;49.422;7.738;2023-03-03T13:55:00;12.00;;;6.45;;
54145;SDS011;65909;49.422;7.738;2023-03-03T14:11:29;10.85;;;6.07;;
54145;SDS011;65909;49.422;7.738;2023-03-03T14:14:23;11.25;;;6.35;;
54145;SDS011;65909;49.422;7.738;2023-03-03T14:17:00;10.63;;;5.82;;
54145;SDS011;65909;49.422;7.738;2023-03-03T14:19:40;11.98;;;6.47;;
54145;SDS011;65909;49.422;7.738;2023-03-03T14:25:08;12.75;;;6.88;;
54145;SDS011;65909;49.422;7.738;2023-03-03T14:32:57;13.70;;;7.18;;
54145;SDS011;65909;49.422;7.738;2023-03-03T14:35:23;12.15;;;6.25;;
54145;SDS011;65909;49.422;7.738;2023-03-03T14:37:53;13.27;;;6.85;;
54145;SDS011;65909;49.422;7.738;2023-03-03T14:40:30;11.40;;;6.32;;
54145;SDS011;65909;49.422;7.738;2023-03-03T14:43:02;10.77;;;6.25;;
54145;SDS011;65909;49.422;7.738;2023-03-03T14:48:17;12.53;;;6.23;;
54145;SDS011;65909;49.422;7.738;2023-03-03T14:53:49;12.77;;;6.72;;
54145;SDS011;65909;49.422;7.738;2023-03-03T15:04:24;9.35;;;5.55;;
54145;SDS011;65909;49.422;7.738;2023-03-03T15:06:52;10.57;;;5.55;;
54145;SDS011;65909;49.422;7.738;2023-03-03T15:12:24;12.23;;;5.60;;
54145;SDS011;65909;49.422;7.738;2023-03-03T15:15:03;12.30;;;5.75;;
54145;SDS011;65909;49.422;7.738;2023-03-03T15:17:33;11.23;;;5.40;;
54145;SDS011;65909;49.422;7.738;2023-03-03T15:25:51;9.85;;;5.10;;
54145;SDS011;65909;49.422;7.738;2023-03-03T15:28:30;10.40;;;5.68;;
54145;SDS011;65909;49.422;7.738;2023-03-03T15:34:00;8.50;;;5.40;;
54145;SDS011;65909;49.422;7.738;2023-03-03T15:36:41;7.72;;;5.18;;
54145;SDS011;65909;49.422;7.738;2023-03-03T15:39:21;12.48;;;5.35;;
54145;SDS011;65909;49.422;7.738;2023-03-03T15:42:02;10.05;;;5.13;;
54145;SDS011;65909;49.422;7.738;2023-03-03T15:44:58;9.60;;;5.10;;
54145;SDS011;65909;49.422;7.738;2023-03-03T15:53:11;9.18;;;4.47;;
54145;SDS011;65909;49.422;7.738;2023-03-03T15:56:35;10.00;;;4.78;;
54145;SDS011;65909;49.422;7.738;2023-03-03T16:17:10;7.18;;;4.18;;
54145;SDS011;65909;49.422;7.738;2023-03-03T16:19:40;9.15;;;4.47;;
54145;SDS011;65909;49.422;7.738;2023-03-03T16:27:31;7.55;;;3.92;;
54145;SDS011;65909;49.422;7.738;2023-03-03T16:30:25;7.63;;;4.78;;
54145;SDS011;65909;49.422;7.738;2023-03-03T16:33:35;7.43;;;3.92;;
54145;SDS011;65909;49.422;7.738;2023-03-03T16:41:56;7.70;;;3.70;;
54145;SDS011;65909;49.422;7.738;2023-03-03T16:50:15;10.35;;;4.80;;
54145;SDS011;65909;49.422;7.738;2023-03-03T16:55:43;8.57;;;4.35;;
54145;SDS011;65909;49.422;7.738;2023-03-03T17:06:15;8.18;;;4.78;;
54145;SDS011;65909;49.422;7.738;2023-03-03T17:08:54;8.13;;;4.13;;
54145;SDS011;65909;49.422;7.738;2023-03-03T17:17:17;8.90;;;4.35;;
54145;SDS011;65909;49.422;7.738;2023-03-03T17:22:44;8.93;;;5.20;;
54145;SDS011;65909;49.422;7.738;2023-03-03T17:25:21;9.05;;;4.53;;
54145;SDS011;65909;49.422;7.738;2023-03-03T17:42:49;10.40;;;4.28;;
54145;SDS011;65909;49.422;7.738;2023-03-03T17:45:24;10.90;;;4.68;;
54145;SDS011;65909;49.422;7.738;2023-03-03T17:52:53;11.13;;;4.82;;
54145;SDS011;65909;49.422;7.738;2023-03-03T17:58:38;11.65;;;5.57;;
54145;SDS011;65909;49.422;7.738;2023-03-03T18:12:33;12.20;;;6.03;;
54145;SDS011;65909;49.422;7.738;2023-03-03T18:15:18;11.63;;;6.00;;
54145;SDS011;65909;49.422;7.738;2023-03-03T18:18:04;12.27;;;6.00;;
54145;SDS011;65909;49.422;7.738;2023-03-03T18:23:31;11.57;;;5.82;;
54145;SDS011;65909;49.422;7.738;2023-03-03T18:29:05;10.40;;;5.25;;
54145;SDS011;65909;49.422;7.738;2023-03-03T18:36:58;13.30;;;6.18;;
54145;SDS011;65909;49.422;7.738;2023-03-03T18:44:35;11.70;;;5.65;;
54145;SDS011;65909;49.422;7.738;2023-03-03T18:47:01;13.98;;;6.05;;
54145;SDS011;65909;49.422;7.738;2023-03-03T18:52:15;11.07;;;6.10;;
54145;SDS011;65909;49.422;7.738;2023-03-03T18:54:57;9.98;;;5.25;;
54145;SDS011;65909;49.422;7.738;2023-03-03T18:57:24;13.30;;;6.75;;
54145;SDS011;65909;49.422;7.738;2023-03-03T18:59:54;14.25;;;6.30;;
54145;SDS011;65909;49.422;7.738;2023-03-03T19:02:32;9.50;;;5.43;;
54145;SDS011;65909;49.422;7.738;2023-03-03T19:10:45;11.13;;;5.45;;
54145;SDS011;65909;49.422;7.738;2023-03-03T19:13:52;11.20;;;5.95;;
54145;SDS011;65909;49.422;7.738;2023-03-03T19:16:02;14.32;;;5.28;;
54145;SDS011;65909;49.422;7.738;2023-03-03T19:18:56;14.82;;;6.63;;
54145;SDS011;65909;49.422;7.738;2023-03-03T19:21:25;10.93;;;5.38;;
54145;SDS011;65909;49.422;7.738;2023-03-03T19:23:58;15.60;;;6.53;;
54145;SDS011;65909;49.422;7.738;2023-03-03T19:34:39;10.40;;;5.00;;
54145;SDS011;65909;49.422;7.738;2023-03-03T19:45:30;9.48;;;4.68;;
54145;SDS011;65909;49.422;7.738;2023-03-03T19:48:03;9.15;;;4.78;;
54145;SDS011;65909;49.422;7.738;2023-03-03T19:50:41;12.70;;;6.25;;
54145;SDS011;65909;49.422;7.738;2023-03-03T19:53:39;9.60;;;4.85;;
54145;SDS011;65909;49.422;7.738;2023-03-03T19:59:06;8.68;;;4.55;;
54145;SDS011;65909;49.422;7.738;2023-03-03T20:04:43;11.38;;;5.22;;
54145;SDS011;65909;49.422;7.738;2023-03-03T20:24:03;12.07;;;5.65;;
54145;SDS011;65909;49.422;7.738;2023-03-03T20:26:53;15.65;;;6.05;;
54145;SDS011;65909;49.422;7.738;2023-03-03T20:32:22;16.52;;;5.75;;
54145;SDS011;65909;49.422;7.738;2023-03-03T20:35:23;11.65;;;5.78;;
54145;SDS011;65909;49.422;7.738;2023-03-03T20:38:22;13.15;;;6.43;;
54145;SDS011;65909;49.422;7.738;2023-03-03T20:41:10;15.15;;;5.78;;
54145;SDS011;65909;49.422;7.738;2023-03-03T20:52:13;10.65;;;5.47;;
54145;SDS011;65909;49.422;7.738;2023-03-03T20:57:19;12.75;;;5.53;;
54145;SDS011;65909;49.422;7.738;2023-03-03T21:05:54;12.95;;;5.95;;
54145;SDS011;65909;49.422;7.738;2023-03-03T21:13:54;13.82;;;6.80;;